Time;durP1;ratioP1;P1;durP2;ratioP2;P2;SDS_P1;SDS_P2;PMS_P1;PMS_P2;Temp;Humidity;BMP_temperature;BMP_pressure;BME280_temperature;BME280_humidity;BME280_pressure;Samples;Min_cycle;Max_cycle;Signal;HPM_P1;HPM_P2
2022/01/08 00:01:23;;;;;;;;;;;;;;;-18.94;88.31;100946.94;5052618;28;19921;-78
2022/01/08 00:03:51;;;;;;;;;;;;;;;-18.83;87.65;100946.00;5052728;28;19928;-78
2022/01/08 00:06:18;;;;;;;;;;;;;;;-18.92;87.65;100948.75;5052709;28;19924;-76
2022/01/08 00:08:45;;;;;;;;;;;;;;;-19.24;87.92;100954.03;5052699;28;19920;-78
2022/01/08 00:11:17;;;;;;;;;;;;;;;-19.26;89.26;100944.78;5052898;28;19956;-77
2022/01/08 00:13:44;;;;;;;;;;;;;;;-19.38;88.16;100940.72;5052951;28;19928;-76
2022/01/08 00:16:10;;;;;;;;;;;;;;;-19.33;87.44;100948.47;5053243;28;19921;-80
2022/01/08 00:18:37;;;;;;;;;;;;;;;-19.06;84.98;100949.44;5052997;28;19921;-78
2022/01/08 00:21:04;;;;;;;;;;;;;;;-18.90;81.54;100946.38;5052619;28;19921;-77
2022/01/08 00:23:31;;;;;;;;;;;;;;;-19.37;81.66;100942.44;5052565;28;19944;-75
2022/01/08 00:25:58;;;;;;;;;;;;;;;-19.77;81.99;100947.19;5052485;28;19928;-78
2022/01/08 00:28:26;;;;;;;;;;;;;;;-20.06;82.11;100955.09;5052553;28;20142;-78
2022/01/08 00:30:53;;;;;;;;;;;;;;;-20.21;82.26;100947.44;5052555;28;19927;-77
2022/01/08 00:33:20;;;;;;;;;;;;;;;-20.29;82.37;100950.09;5052642;28;19920;-77
2022/01/08 00:35:47;;;;;;;;;;;;;;;-20.33;82.51;100956.47;5052533;28;19921;-76
2022/01/08 00:38:14;;;;;;;;;;;;;;;-20.45;82.77;100955.56;5052790;28;19921;-77
2022/01/08 00:40:40;;;;;;;;;;;;;;;-20.39;82.99;100951.09;5052431;28;19924;-77
2022/01/08 00:43:07;;;;;;;;;;;;;;;-20.73;83.03;100960.16;5052674;28;19929;-77
2022/01/08 00:45:35;;;;;;;;;;;;;;;-20.74;85.00;100959.31;5054034;28;19943;-78
2022/01/08 00:48:01;;;;;;;;;;;;;;;-20.60;84.85;100952.03;5068592;22;19920;-64
2022/01/08 00:50:28;;;;;;;;;;;;;;;-20.52;84.06;100949.34;5056443;28;19920;-64
2022/01/08 00:52:55;;;;;;;;;;;;;;;-20.73;85.33;100950.28;5055963;28;19936;-66
2022/01/08 00:55:21;;;;;;;;;;;;;;;-20.97;86.83;100947.75;5056123;28;19928;-63
2022/01/08 00:57:48;;;;;;;;;;;;;;;-21.08;86.80;100943.63;5056074;28;19920;-65
2022/01/08 01:00:14;;;;;;;;;;;;;;;-21.11;87.93;100946.72;5056002;28;19921;-65
2022/01/08 01:02:43;;;;;;;;;;;;;;;-21.06;87.93;100943.72;5056096;28;19920;-66
2022/01/08 01:05:10;;;;;;;;;;;;;;;-21.05;88.42;100945.47;5055938;28;19921;-64
2022/01/08 01:07:37;;;;;;;;;;;;;;;-20.87;88.42;100947.66;5055738;28;19921;-64
2022/01/08 01:10:04;;;;;;;;;;;;;;;-21.06;87.81;100947.09;5055953;28;19924;-65
2022/01/08 01:12:30;;;;;;;;;;;;;;;-21.05;88.82;100950.41;5055997;28;19925;-63
2022/01/08 01:14:57;;;;;;;;;;;;;;;-20.96;88.90;100951.94;5055521;28;19928;-65
2022/01/08 01:17:24;;;;;;;;;;;;;;;-21.10;88.55;100948.44;5055552;28;19920;-65
2022/01/08 01:19:52;;;;;;;;;;;;;;;-21.11;89.01;100954.16;5055599;28;19920;-65
2022/01/08 01:22:21;;;;;;;;;;;;;;;-20.86;89.37;100958.41;5055513;28;19928;-64
2022/01/08 01:24:49;;;;;;;;;;;;;;;-20.57;88.40;100957.19;5055752;28;19968;-65
2022/01/08 01:30:08;;;;;;;;;;;;;;;-20.46;87.67;100961.28;5011664;28;20023;-64
2022/01/08 01:47:00;;;;;;;;;;;;;;;-20.07;85.45;100963.25;5055268;28;20019;-68
2022/01/08 01:49:10;;;;;;;;;;;;;;;-20.46;88.25;100962.13;5055270;28;19927;-64
2022/01/08 01:51:38;;;;;;;;;;;;;;;-20.70;88.70;100951.38;5055014;28;19928;-70
2022/01/08 01:54:05;;;;;;;;;;;;;;;-20.59;87.46;100952.16;5054912;28;19920;-66
2022/01/08 01:56:32;;;;;;;;;;;;;;;-20.52;87.11;100959.25;5053818;28;19928;-64
2022/01/08 01:58:58;;;;;;;;;;;;;;;-20.94;84.04;100960.31;5054645;28;20298;-64
2022/01/08 02:01:25;;;;;;;;;;;;;;;-21.39;84.35;100958.66;5054893;28;19921;-64
2022/01/08 02:03:52;;;;;;;;;;;;;;;-21.13;84.21;100964.66;5054807;28;20370;-68
2022/01/08 02:06:18;;;;;;;;;;;;;;;-20.79;79.56;100964.69;5054667;28;20023;-69
2022/01/08 02:08:46;;;;;;;;;;;;;;;-20.90;78.90;100966.38;5054743;28;19924;-65
2022/01/08 02:11:14;;;;;;;;;;;;;;;-21.20;78.44;100958.41;5054617;28;19921;-64
2022/01/08 02:13:40;;;;;;;;;;;;;;;-21.56;78.92;100963.94;5054670;28;19920;-64
2022/01/08 02:16:16;;;;;;;;;;;;;;;-22.08;78.98;100974.75;5054716;28;19925;-67
2022/01/08 02:18:43;;;;;;;;;;;;;;;-22.60;78.70;100970.63;5054450;28;20414;-64
2022/01/08 02:21:12;;;;;;;;;;;;;;;-23.09;79.18;100968.44;5054564;28;19921;-65
2022/01/08 02:23:39;;;;;;;;;;;;;;;-23.31;81.33;100973.19;5054489;28;19927;-63
2022/01/08 02:26:06;;;;;;;;;;;;;;;-23.31;83.04;100990.41;5054640;28;19925;-68
2022/01/08 02:28:33;;;;;;;;;;;;;;;-23.19;84.89;100985.66;5054307;28;19944;-68
2022/01/08 02:31:00;;;;;;;;;;;;;;;-23.27;85.82;100991.53;5054152;28;19921;-66
2022/01/08 02:33:26;;;;;;;;;;;;;;;-23.08;87.34;100993.94;5054375;28;19925;-69
2022/01/08 02:35:53;;;;;;;;;;;;;;;-22.95;87.56;100991.69;5054062;28;20279;-69
2022/01/08 02:38:21;;;;;;;;;;;;;;;-22.95;87.67;100994.16;5054019;28;20401;-69
2022/01/08 02:40:54;;;;;;;;;;;;;;;-22.71;86.36;100987.88;5054088;28;19921;-68
2022/01/08 02:43:21;;;;;;;;;;;;;;;-22.50;89.47;100990.34;5054039;28;19921;-68
2022/01/08 02:45:47;;;;;;;;;;;;;;;-22.32;89.13;100998.34;5053999;28;19944;-68
2022/01/08 02:48:14;;;;;;;;;;;;;;;-22.32;87.47;101004.19;5066407;22;19921;-78
2022/01/08 02:50:41;;;;;;;;;;;;;;;-22.09;88.23;101002.59;5054381;28;19921;-76
2022/01/08 02:53:08;;;;;;;;;;;;;;;-21.71;85.95;100998.19;5054080;28;19921;-78
2022/01/08 02:55:37;;;;;;;;;;;;;;;-21.54;82.98;100994.56;5053731;28;19927;-78
2022/01/08 02:58:04;;;;;;;;;;;;;;;-21.62;81.83;101001.38;5053673;28;20405;-77
2022/01/08 03:00:31;;;;;;;;;;;;;;;-21.74;81.72;100990.56;5053771;28;19921;-77
2022/01/08 03:02:58;;;;;;;;;;;;;;;-22.26;85.06;100991.47;5053797;28;19921;-77
2022/01/08 03:05:24;;;;;;;;;;;;;;;-22.15;87.88;100990.66;5053488;28;19920;-77
2022/01/08 03:07:51;;;;;;;;;;;;;;;-22.10;87.63;100999.28;5053358;28;19943;-76
2022/01/08 03:10:18;;;;;;;;;;;;;;;-21.68;84.20;100987.69;5053844;28;19924;-75
2022/01/08 03:12:47;;;;;;;;;;;;;;;-21.72;80.27;100991.53;5053719;28;19921;-77
2022/01/08 03:15:15;;;;;;;;;;;;;;;-22.05;79.55;100987.31;5053985;28;20019;-75
2022/01/08 03:17:42;;;;;;;;;;;;;;;-22.48;78.92;100984.81;5053615;28;19921;-74
2022/01/08 03:20:12;;;;;;;;;;;;;;;-23.12;78.47;100982.09;5053288;28;20101;-73
2022/01/08 03:22:39;;;;;;;;;;;;;;;-23.41;81.40;100975.63;5053199;28;20309;-73
2022/01/08 03:25:07;;;;;;;;;;;;;;;-23.34;81.92;100977.84;5053075;28;19975;-73
2022/01/08 03:27:34;;;;;;;;;;;;;;;-23.42;81.80;100981.28;5053215;28;19920;-73
2022/01/08 03:30:04;;;;;;;;;;;;;;;-23.44;81.47;100980.28;5053201;28;19995;-72
2022/01/08 03:32:30;;;;;;;;;;;;;;;-23.46;80.90;100975.97;5053102;28;19929;-73
2022/01/08 03:34:57;;;;;;;;;;;;;;;-23.54;80.57;100971.25;5052905;28;19920;-77
2022/01/08 03:37:23;;;;;;;;;;;;;;;-23.46;82.28;100966.13;5052883;28;19928;-78
2022/01/08 03:39:50;;;;;;;;;;;;;;;-23.26;81.94;100973.56;5053042;28;20061;-74
2022/01/08 03:42:17;;;;;;;;;;;;;;;-23.15;82.19;100974.44;5053287;28;20279;-73
2022/01/08 03:44:43;;;;;;;;;;;;;;;-23.11;82.19;100982.22;5053505;28;19921;-76
2022/01/08 03:47:31;;;;;;;;;;;;;;;-23.01;82.89;100975.56;5064978;22;19928;-70
2022/01/08 03:49:58;;;;;;;;;;;;;;;-22.87;82.56;100978.38;5052931;28;19974;-70
2022/01/08 03:52:26;;;;;;;;;;;;;;;-22.87;83.76;100984.94;5052865;28;19921;-69
2022/01/08 03:54:52;;;;;;;;;;;;;;;-23.00;84.20;100989.63;5052623;28;19920;-69
2022/01/08 03:57:19;;;;;;;;;;;;;;;-22.69;83.79;100988.03;5052816;28;19924;-70
2022/01/08 03:59:45;;;;;;;;;;;;;;;-22.84;84.25;100990.09;5052933;28;19928;-69
2022/01/08 04:02:13;;;;;;;;;;;;;;;-23.10;85.06;100988.88;5052782;28;20387;-67
2022/01/08 04:04:40;;;;;;;;;;;;;;;-23.26;84.58;101000.66;5052464;28;19928;-68
2022/01/08 04:07:07;;;;;;;;;;;;;;;-23.31;86.11;100996.94;5052645;28;20350;-70
2022/01/08 04:09:34;;;;;;;;;;;;;;;-23.20;87.36;100996.22;5052598;28;19928;-70
2022/01/08 04:12:02;;;;;;;;;;;;;;;-22.89;88.08;100993.78;5052665;28;19943;-69
2022/01/08 04:14:36;;;;;;;;;;;;;;;-22.76;87.58;101003.06;5052498;28;19943;-68
2022/01/08 04:17:03;;;;;;;;;;;;;;;-22.55;85.77;101003.91;5052673;28;19920;-68
2022/01/08 04:19:31;;;;;;;;;;;;;;;-22.42;84.22;101005.03;5052043;28;19928;-68
2022/01/08 04:22:02;;;;;;;;;;;;;;;-22.67;84.87;101009.59;5052402;28;19928;-68
2022/01/08 04:24:29;;;;;;;;;;;;;;;-22.81;85.85;100999.34;5052562;28;20394;-67
2022/01/08 04:26:55;;;;;;;;;;;;;;;-22.76;86.00;100998.97;5052301;28;20371;-70
2022/01/08 04:29:22;;;;;;;;;;;;;;;-22.68;85.98;101004.53;5052594;28;19920;-70
2022/01/08 04:31:49;;;;;;;;;;;;;;;-22.52;85.46;100999.25;5052320;28;19921;-68
2022/01/08 04:34:15;;;;;;;;;;;;;;;-22.69;85.99;100997.88;5052363;28;19921;-69
2022/01/08 04:36:43;;;;;;;;;;;;;;;-22.50;87.94;101007.63;5052172;28;20383;-69
2022/01/08 04:39:10;;;;;;;;;;;;;;;-22.66;84.98;101010.47;5052332;28;19928;-67
2022/01/08 04:41:36;;;;;;;;;;;;;;;-22.32;85.80;101006.66;5052366;28;19920;-69
2022/01/08 04:44:06;;;;;;;;;;;;;;;-22.13;80.09;101008.06;5052240;28;20287;-68
2022/01/08 04:46:32;;;;;;;;;;;;;;;-22.56;77.16;101008.00;5052131;28;20027;-69
2022/01/08 04:48:59;;;;;;;;;;;;;;;-23.03;77.17;100997.63;5064685;22;19928;-77
2022/01/08 04:51:26;;;;;;;;;;;;;;;-23.28;78.15;101007.06;5052166;28;19921;-76
2022/01/08 04:53:54;;;;;;;;;;;;;;;-23.56;77.67;101007.19;5052425;28;19921;-77
2022/01/08 04:56:20;;;;;;;;;;;;;;;-23.72;77.51;100998.44;5052357;28;19935;-72
2022/01/08 04:58:47;;;;;;;;;;;;;;;-23.86;78.21;100998.13;5052046;28;20386;-74
2022/01/08 05:01:14;;;;;;;;;;;;;;;-24.24;77.73;100989.91;5052393;28;19927;-76
2022/01/08 05:03:41;;;;;;;;;;;;;;;-24.28;78.78;100993.69;5051894;28;19931;-77
2022/01/08 05:06:07;;;;;;;;;;;;;;;-24.24;78.88;101002.22;5052041;28;19971;-76
2022/01/08 05:08:34;;;;;;;;;;;;;;;-24.12;80.40;100999.94;5051950;28;19920;-75
2022/01/08 05:11:02;;;;;;;;;;;;;;;-24.11;80.41;100992.69;5051807;28;20294;-76
2022/01/08 05:13:29;;;;;;;;;;;;;;;-24.23;84.18;100999.88;5051808;28;20365;-77
2022/01/08 05:15:57;;;;;;;;;;;;;;;-24.23;84.03;100996.56;5052106;28;20291;-75
2022/01/08 05:18:24;;;;;;;;;;;;;;;-24.26;84.74;100989.78;5052227;28;20020;-73
2022/01/08 05:20:56;;;;;;;;;;;;;;;-24.14;85.95;100996.47;5052053;28;20298;-73
2022/01/08 05:23:23;;;;;;;;;;;;;;;-23.60;82.79;101000.31;5051933;28;19928;-77
2022/01/08 05:25:49;;;;;;;;;;;;;;;-23.40;81.87;100998.63;5051833;28;19925;-76
2022/01/08 05:28:17;;;;;;;;;;;;;;;-23.35;80.88;100997.41;5051689;28;19921;-73
2022/01/08 05:30:44;;;;;;;;;;;;;;;-23.57;80.41;101005.47;5051924;28;20291;-73
2022/01/08 05:33:11;;;;;;;;;;;;;;;-23.79;78.97;101006.88;5055255;28;19920;-73
2022/01/08 05:35:38;;;;;;;;;;;;;;;-23.90;79.14;101005.97;5055285;28;19920;-77
2022/01/08 05:38:04;;;;;;;;;;;;;;;-24.15;79.48;101003.00;5055176;28;19921;-77
2022/01/08 05:40:31;;;;;;;;;;;;;;;-24.28;79.70;101000.22;5055361;28;20289;-78
2022/01/08 05:42:58;;;;;;;;;;;;;;;-24.49;82.30;100997.66;5055415;28;19921;-77
2022/01/08 05:45:26;;;;;;;;;;;;;;;-24.47;83.45;101005.16;5055239;28;19920;-77
2022/01/08 05:47:52;;;;;;;;;;;;;;;-24.34;84.13;100998.09;5067994;22;19928;-69
2022/01/08 05:50:19;;;;;;;;;;;;;;;-24.17;84.55;100999.53;5055130;28;20370;-68
2022/01/08 05:52:45;;;;;;;;;;;;;;;-23.99;85.10;100988.84;5055055;28;19928;-69
2022/01/08 05:55:12;;;;;;;;;;;;;;;-23.93;85.29;100988.50;5054876;28;19928;-68
2022/01/08 05:57:39;;;;;;;;;;;;;;;-23.84;85.81;100991.72;5054674;28;20366;-68
2022/01/08 06:00:07;;;;;;;;;;;;;;;-23.76;85.96;100992.38;5054986;28;19927;-68
2022/01/08 06:02:35;;;;;;;;;;;;;;;-23.56;83.62;100991.56;5054736;28;20390;-67
2022/01/08 06:05:01;;;;;;;;;;;;;;;-23.40;81.08;100989.66;5054843;28;20398;-68
2022/01/08 06:07:28;;;;;;;;;;;;;;;-23.34;79.90;100985.25;5054772;28;19921;-68
2022/01/08 06:09:54;;;;;;;;;;;;;;;-23.53;78.69;100991.81;5054676;28;20314;-63
2022/01/08 06:12:21;;;;;;;;;;;;;;;-23.86;78.49;100982.47;5054799;28;20386;-69
2022/01/08 06:14:47;;;;;;;;;;;;;;;-24.17;79.18;100989.69;5054481;28;20252;-68
2022/01/08 06:17:14;;;;;;;;;;;;;;;-24.23;80.17;100985.13;5054509;28;20263;-68
2022/01/08 06:19:42;;;;;;;;;;;;;;;-24.20;81.10;100986.97;5054479;28;19920;-69
2022/01/08 06:22:09;;;;;;;;;;;;;;;-24.27;80.76;100990.53;5054310;28;19928;-69
2022/01/08 06:24:35;;;;;;;;;;;;;;;-24.25;80.54;100993.09;5054228;28;19921;-68
2022/01/08 06:27:02;;;;;;;;;;;;;;;-24.08;83.17;100994.56;5054208;28;20367;-69
2022/01/08 06:29:28;;;;;;;;;;;;;;;-24.29;80.70;100993.56;5054189;28;19924;-68
2022/01/08 06:31:55;;;;;;;;;;;;;;;-24.20;82.11;101001.72;5054576;28;19921;-69
2022/01/08 06:34:22;;;;;;;;;;;;;;;-24.47;81.69;100998.66;5054437;28;19957;-67
2022/01/08 06:36:50;;;;;;;;;;;;;;;-24.33;84.04;101001.41;5053991;28;19921;-69
2022/01/08 06:39:16;;;;;;;;;;;;;;;-24.13;85.25;101000.69;5054342;28;19925;-69
2022/01/08 06:41:43;;;;;;;;;;;;;;;-23.74;84.91;101005.69;5054123;28;19932;-69
2022/01/08 06:44:10;;;;;;;;;;;;;;;-23.42;82.21;100995.19;5053196;28;20371;-69
2022/01/08 06:46:36;;;;;;;;;;;;;;;-23.41;82.06;101004.31;5054030;28;19920;-68
2022/01/08 06:49:03;;;;;;;;;;;;;;;-23.38;81.04;101000.50;5066019;22;19925;-74
2022/01/08 06:51:31;;;;;;;;;;;;;;;-23.45;81.22;101010.56;5053943;28;19921;-74
2022/01/08 06:53:59;;;;;;;;;;;;;;;-23.59;81.28;101009.41;5054086;28;20287;-72
2022/01/08 06:56:25;;;;;;;;;;;;;;;-23.81;79.15;101008.34;5053989;28;19928;-74
2022/01/08 06:58:52;;;;;;;;;;;;;;;-23.94;79.30;101012.97;5053917;28;19927;-78
2022/01/08 07:01:18;;;;;;;;;;;;;;;-24.14;80.48;101012.13;5053875;28;19948;-79
2022/01/08 07:03:45;;;;;;;;;;;;;;;-24.19;79.36;101013.31;5053651;28;19920;-77
2022/01/08 07:06:11;;;;;;;;;;;;;;;-24.39;79.47;101008.25;5053490;28;19928;-73
2022/01/08 07:08:38;;;;;;;;;;;;;;;-24.29;81.34;101008.34;5053856;28;19921;-77
2022/01/08 07:11:06;;;;;;;;;;;;;;;-24.33;81.29;101009.66;5054814;28;19927;-76
2022/01/08 07:13:32;;;;;;;;;;;;;;;-24.48;82.64;101013.25;5054318;28;19921;-77
2022/01/08 07:15:59;;;;;;;;;;;;;;;-24.29;84.39;101009.19;5058321;28;19921;-75
2022/01/08 07:18:26;;;;;;;;;;;;;;;-24.12;84.62;101020.47;5059727;28;19927;-76
2022/01/08 07:20:55;;;;;;;;;;;;;;;-23.66;84.27;101019.47;5060870;28;19932;-79
2022/01/08 07:23:21;;;;;;;;;;;;;;;-23.36;83.03;101018.72;5054693;28;19967;-78
2022/01/08 07:25:48;;;;;;;;;;;;;;;-23.26;82.84;101012.13;5053315;28;20394;-78
2022/01/08 07:28:16;;;;;;;;;;;;;;;-23.15;83.97;101007.34;5053254;28;19920;-78
2022/01/08 07:30:42;;;;;;;;;;;;;;;-23.22;83.90;101011.63;5053872;28;19928;-78
2022/01/08 07:33:09;;;;;;;;;;;;;;;-23.03;83.72;101014.03;5053134;28;19927;-78
2022/01/08 07:35:35;;;;;;;;;;;;;;;-23.05;84.83;101013.88;5053205;28;19921;-75
2022/01/08 07:38:02;;;;;;;;;;;;;;;-23.00;84.38;101021.66;5053041;28;19936;-79
2022/01/08 07:40:29;;;;;;;;;;;;;;;-22.75;85.02;101013.06;5053101;28;19921;-78
2022/01/08 07:42:55;;;;;;;;;;;;;;;-22.66;86.74;101011.31;5053250;28;19927;-77
2022/01/08 07:45:23;;;;;;;;;;;;;;;-22.58;86.66;101013.53;5052877;28;19920;-79
2022/01/08 07:47:50;;;;;;;;;;;;;;;-22.62;86.25;101021.44;5065424;22;19924;-67
2022/01/08 07:50:17;;;;;;;;;;;;;;;-22.49;85.11;101019.22;5053138;28;19927;-71
2022/01/08 07:52:44;;;;;;;;;;;;;;;-22.47;85.41;101007.88;5053023;28;19921;-70
2022/01/08 07:55:11;;;;;;;;;;;;;;;-22.31;84.29;101020.69;5051693;28;20405;-66
2022/01/08 07:57:37;;;;;;;;;;;;;;;-22.26;83.49;101023.53;5052610;28;19921;-68
2022/01/08 08:00:04;;;;;;;;;;;;;;;-22.28;84.46;101020.06;5052638;28;19921;-69
2022/01/08 08:02:32;;;;;;;;;;;;;;;-22.15;83.50;101024.34;5053020;28;19927;-70
2022/01/08 08:04:59;;;;;;;;;;;;;;;-22.31;84.67;101028.09;5052885;28;19928;-69
2022/01/08 08:07:29;;;;;;;;;;;;;;;-22.33;84.16;101018.84;5052385;28;19921;-69
2022/01/08 08:09:56;;;;;;;;;;;;;;;-22.26;83.90;101026.88;5052505;28;19927;-71
2022/01/08 08:12:23;;;;;;;;;;;;;;;-22.21;84.17;101027.22;5052623;28;19924;-69
2022/01/08 08:14:50;;;;;;;;;;;;;;;-22.14;82.01;101026.06;5052462;28;19924;-68
2022/01/08 08:17:16;;;;;;;;;;;;;;;-22.17;81.77;101026.69;5052380;28;19927;-68
2022/01/08 08:19:44;;;;;;;;;;;;;;;-22.25;81.86;101022.78;5052557;28;20414;-69
2022/01/08 08:22:11;;;;;;;;;;;;;;;-22.28;81.43;101030.81;5052566;28;19928;-70
2022/01/08 08:24:37;;;;;;;;;;;;;;;-22.11;83.39;101021.38;5052608;28;19921;-67
2022/01/08 08:27:04;;;;;;;;;;;;;;;-21.85;84.83;101024.31;5052442;28;19928;-70
2022/01/08 08:29:31;;;;;;;;;;;;;;;-21.76;85.13;101020.06;5052957;28;19925;-68
2022/01/08 08:31:57;;;;;;;;;;;;;;;-21.71;84.80;101014.63;5052624;28;19928;-69
2022/01/08 08:34:24;;;;;;;;;;;;;;;-21.61;84.84;101017.06;5052243;28;19924;-68
2022/01/08 08:36:52;;;;;;;;;;;;;;;-21.59;84.80;101013.97;5052297;28;20279;-69
2022/01/08 08:39:19;;;;;;;;;;;;;;;-21.50;84.97;101016.28;5052402;28;19921;-69
2022/01/08 08:41:45;;;;;;;;;;;;;;;-21.27;84.88;101013.03;5052283;28;19928;-69
2022/01/08 08:44:12;;;;;;;;;;;;;;;-21.17;84.33;101017.09;5052103;28;19921;-68
2022/01/08 08:46:38;;;;;;;;;;;;;;;-21.12;85.14;101010.88;5052587;28;19920;-69
2022/01/08 08:49:05;;;;;;;;;;;;;;;-21.05;84.20;101017.16;5052743;28;19921;-68
2022/01/08 08:51:31;;;;;;;;;;;;;;;-21.01;84.13;101012.56;5052279;28;19928;-67
2022/01/08 08:53:59;;;;;;;;;;;;;;;-20.93;84.18;101009.03;5052060;28;19920;-68
2022/01/08 08:56:27;;;;;;;;;;;;;;;-20.97;84.31;101006.22;5051974;28;19925;-68
2022/01/08 08:58:54;;;;;;;;;;;;;;;-20.91;84.96;101011.63;5052115;28;19924;-69
2022/01/08 09:01:21;;;;;;;;;;;;;;;-20.84;83.80;101005.53;5052118;28;19921;-69
2022/01/08 09:03:48;;;;;;;;;;;;;;;-20.80;84.07;101007.47;5052083;28;19928;-69
2022/01/08 09:06:15;;;;;;;;;;;;;;;-20.77;83.54;101011.03;5053030;28;19920;-69
2022/01/08 09:08:41;;;;;;;;;;;;;;;-20.71;82.94;101009.00;5055775;28;19928;-67
2022/01/08 09:11:09;;;;;;;;;;;;;;;-20.72;83.44;101008.91;5056036;28;19925;-69
2022/01/08 09:13:36;;;;;;;;;;;;;;;-20.70;84.12;100999.97;5055909;28;19925;-67
2022/01/08 09:16:03;;;;;;;;;;;;;;;-20.62;83.24;101003.88;5055979;28;19921;-69
2022/01/08 09:18:29;;;;;;;;;;;;;;;-20.69;83.11;101005.03;5055649;28;19920;-67
2022/01/08 09:20:56;;;;;;;;;;;;;;;-20.56;83.63;101011.75;5055646;28;19928;-69
2022/01/08 09:23:22;;;;;;;;;;;;;;;-20.58;83.90;100998.41;5055592;28;19921;-70
2022/01/08 09:25:49;;;;;;;;;;;;;;;-20.59;83.21;100991.75;5055382;28;19921;-69
2022/01/08 09:28:17;;;;;;;;;;;;;;;-20.52;84.07;100998.84;5055449;28;19921;-69
2022/01/08 09:30:44;;;;;;;;;;;;;;;-20.51;83.87;100998.06;5055747;28;19921;-69
2022/01/08 09:33:11;;;;;;;;;;;;;;;-20.51;83.00;101003.03;5055673;28;20286;-69
2022/01/08 09:35:38;;;;;;;;;;;;;;;-20.49;84.04;101005.63;5055513;28;19943;-68
2022/01/08 09:38:04;;;;;;;;;;;;;;;-20.52;82.94;101005.38;5055330;28;19927;-69
2022/01/08 09:40:31;;;;;;;;;;;;;;;-20.40;83.54;101005.41;5055163;28;19921;-69
2022/01/08 09:42:58;;;;;;;;;;;;;;;-20.45;83.83;101003.44;5055110;28;20290;-67
2022/01/08 09:45:26;;;;;;;;;;;;;;;-20.45;83.66;101007.53;5054921;28;20283;-69
2022/01/08 09:47:52;;;;;;;;;;;;;;;-20.43;83.19;101001.94;5055413;28;19920;-70
2022/01/08 09:50:19;;;;;;;;;;;;;;;-20.45;84.04;100997.66;5055055;28;20290;-69
2022/01/08 09:52:45;;;;;;;;;;;;;;;-20.59;84.04;100994.22;5055039;28;19928;-69
2022/01/08 09:55:12;;;;;;;;;;;;;;;-20.40;83.71;100988.09;5055130;28;19921;-69
2022/01/08 09:57:38;;;;;;;;;;;;;;;-20.34;83.60;100998.41;5054903;28;19927;-65
2022/01/08 10:00:10;;;;;;;;;;;;;;;-20.39;83.77;100999.69;5055380;28;20310;-69
2022/01/08 10:02:38;;;;;;;;;;;;;;;-20.48;84.10;100988.38;5055102;28;19967;-69
2022/01/08 10:05:08;;;;;;;;;;;;;;;-20.51;81.89;101003.03;5054904;28;20367;-69
2022/01/08 10:07:34;;;;;;;;;;;;;;;-20.74;80.18;101002.97;5054966;28;20371;-69
2022/01/08 10:10:02;;;;;;;;;;;;;;;-20.82;84.20;101004.03;5054922;28;19921;-68
2022/01/08 10:12:39;;;;;;;;;;;;;;;-20.80;82.31;101002.50;5054812;28;19927;-68
2022/01/08 10:17:52;;;;;;;;;;;;;;;-20.76;86.58;100999.53;5053736;28;20394;-68
2022/01/08 10:20:32;;;;;;;;;;;;;;;-20.73;85.64;100998.13;5056058;28;19976;-68
2022/01/08 10:23:09;;;;;;;;;;;;;;;-20.60;86.16;100997.41;5054883;28;20302;-69
2022/01/08 10:25:36;;;;;;;;;;;;;;;-20.57;85.70;100992.72;5055533;28;20374;-69
2022/01/08 10:28:02;;;;;;;;;;;;;;;-20.55;85.96;101003.56;5055395;28;19925;-69
2022/01/08 10:30:29;;;;;;;;;;;;;;;-20.52;85.51;100998.84;5054754;28;19943;-69
2022/01/08 10:32:58;;;;;;;;;;;;;;;-20.52;85.74;100996.34;5054365;28;19928;-68
2022/01/08 10:35:39;;;;;;;;;;;;;;;-20.30;84.75;100998.75;5054132;28;20396;-69
2022/01/08 10:38:05;;;;;;;;;;;;;;;-20.25;85.23;101006.50;5053775;28;19920;-69
2022/01/08 10:40:33;;;;;;;;;;;;;;;-20.43;85.51;101001.09;5054138;28;19920;-69
2022/01/08 10:43:00;;;;;;;;;;;;;;;-20.41;85.49;100992.19;5054040;28;19928;-69
2022/01/08 10:45:33;;;;;;;;;;;;;;;-20.15;85.29;100991.56;5054405;28;19921;-69
2022/01/08 10:48:05;;;;;;;;;;;;;;;-19.85;84.26;100989.53;5054350;28;19928;-70
2022/01/08 10:50:33;;;;;;;;;;;;;;;-19.81;84.54;100989.00;5054091;28;19921;-69
2022/01/08 10:52:59;;;;;;;;;;;;;;;-19.85;84.07;100996.97;5053751;28;19921;-70
2022/01/08 10:55:32;;;;;;;;;;;;;;;-19.92;83.79;100993.19;5054016;28;20680;-70
2022/01/08 10:57:59;;;;;;;;;;;;;;;-19.92;83.58;100990.72;5053816;28;19928;-69
2022/01/08 11:00:30;;;;;;;;;;;;;;;-20.01;83.87;100998.38;5053921;28;19928;-70
2022/01/08 11:02:57;;;;;;;;;;;;;;;-20.04;84.32;100997.28;5054011;28;20262;-69
2022/01/08 11:05:25;;;;;;;;;;;;;;;-20.24;84.89;100991.78;5053890;28;19928;-70
2022/01/08 11:07:52;;;;;;;;;;;;;;;-20.05;84.62;100991.47;5053560;28;19994;-69
2022/01/08 11:10:20;;;;;;;;;;;;;;;-19.84;83.97;100991.25;5053793;28;19927;-70
2022/01/08 11:12:47;;;;;;;;;;;;;;;-19.86;83.28;100991.13;5053834;28;19963;-69
2022/01/08 11:15:35;;;;;;;;;;;;;;;-20.00;83.30;100986.84;5053378;28;20366;-69
2022/01/08 11:18:01;;;;;;;;;;;;;;;-20.15;84.81;100984.13;5053080;28;20343;-70
2022/01/08 11:20:30;;;;;;;;;;;;;;;-20.22;85.31;100981.97;5053296;28;19928;-70
2022/01/08 11:22:58;;;;;;;;;;;;;;;-19.79;84.19;100990.81;5053545;28;19928;-70
2022/01/08 11:25:27;;;;;;;;;;;;;;;-19.75;83.01;100984.47;5053349;28;19920;-69
2022/01/08 11:27:59;;;;;;;;;;;;;;;-19.92;83.79;100978.34;5053188;28;19921;-70
2022/01/08 11:30:27;;;;;;;;;;;;;;;-19.72;83.09;100984.69;5052918;28;19921;-69
2022/01/08 11:32:55;;;;;;;;;;;;;;;-19.71;83.13;100974.00;5053238;28;19928;-70
2022/01/08 11:35:23;;;;;;;;;;;;;;;-19.74;83.46;100976.28;5053024;28;20355;-70
2022/01/08 11:37:52;;;;;;;;;;;;;;;-19.81;83.50;100981.56;5053292;28;19920;-70
2022/01/08 11:40:19;;;;;;;;;;;;;;;-19.83;84.09;100969.09;5053337;28;19943;-69
2022/01/08 11:42:46;;;;;;;;;;;;;;;-19.84;84.23;100974.78;5053237;28;20007;-70
2022/01/08 11:45:14;;;;;;;;;;;;;;;-19.74;83.95;100968.84;5053158;28;19921;-68
2022/01/08 11:47:45;;;;;;;;;;;;;;;-19.70;83.78;100968.31;5053185;28;20296;-70
2022/01/08 11:50:13;;;;;;;;;;;;;;;-19.82;83.69;100969.94;5053392;28;19964;-71
2022/01/08 11:52:39;;;;;;;;;;;;;;;-19.78;84.58;100975.22;5052997;28;19960;-69
2022/01/08 11:55:08;;;;;;;;;;;;;;;-19.84;84.80;100982.19;5052885;28;19924;-69
2022/01/08 11:57:34;;;;;;;;;;;;;;;-19.84;85.15;100981.34;5052483;28;19921;-70
2022/01/08 12:00:02;;;;;;;;;;;;;;;-19.78;85.41;100986.72;5052930;28;19921;-70
2022/01/08 12:02:39;;;;;;;;;;;;;;;-19.55;83.73;100976.75;5052973;28;19921;-70
2022/01/08 12:05:09;;;;;;;;;;;;;;;-19.53;85.42;100976.00;5052708;28;19931;-70
2022/01/08 12:07:38;;;;;;;;;;;;;;;-19.55;86.86;100971.78;5052617;28;19927;-69
2022/01/08 12:10:13;;;;;;;;;;;;;;;-19.62;87.32;100968.78;5052518;28;19921;-69
2022/01/08 12:12:53;;;;;;;;;;;;;;;-19.63;87.12;100969.53;5052856;28;19921;-70
2022/01/08 12:15:39;;;;;;;;;;;;;;;-19.67;86.85;100970.16;5052478;28;19920;-70
2022/01/08 12:18:06;;;;;;;;;;;;;;;-19.69;86.89;100967.53;5052384;28;19974;-70
2022/01/08 12:20:39;;;;;;;;;;;;;;;-19.72;86.72;100962.38;5052548;28;19932;-70
2022/01/08 12:23:25;;;;;;;;;;;;;;;-19.67;86.58;100965.19;5052739;28;19928;-70
2022/01/08 12:25:53;;;;;;;;;;;;;;;-19.69;86.31;100965.06;5052825;28;19920;-70
2022/01/08 12:28:38;;;;;;;;;;;;;;;-19.72;86.13;100962.38;5052559;28;19921;-69
2022/01/08 12:31:41;;;;;;;;;;;;;;;-19.71;85.89;100959.16;5052284;28;19943;-70
2022/01/08 12:34:28;;;;;;;;;;;;;;;-19.71;86.38;100953.34;5010552;28;20008;-70
2022/01/08 12:36:56;;;;;;;;;;;;;;;-19.58;85.97;100944.31;5010647;28;19921;-68
2022/01/08 12:39:26;;;;;;;;;;;;;;;-19.58;85.49;100944.31;5035985;28;20012;-70
2022/01/08 12:42:07;;;;;;;;;;;;;;;-19.59;86.01;100952.53;5054433;28;19920;-70
2022/01/08 12:44:35;;;;;;;;;;;;;;;-19.51;85.37;100944.75;5056133;28;19921;-69
2022/01/08 12:47:02;;;;;;;;;;;;;;;-19.59;84.99;100946.72;5056242;28;19920;-69
2022/01/08 12:49:28;;;;;;;;;;;;;;;-19.65;85.60;100939.72;5056376;28;20405;-68
2022/01/08 12:52:05;;;;;;;;;;;;;;;-19.68;85.22;100933.72;5056315;28;20378;-70